sensor_id;sensor_type;location;lat;lon;timestamp;P1;durP1;ratioP1;P2;durP2;ratioP2
18738;SDS011;9498;51.862;19.460;2023-04-21T00:00:57;49.10;;;21.93;;
18738;SDS011;9498;51.862;19.460;2023-04-21T00:03:26;47.03;;;22.00;;
18738;SDS011;9498;51.862;19.460;2023-04-21T00:05:54;45.43;;;21.07;;
18738;SDS011;9498;51.862;19.460;2023-04-21T00:08:23;43.97;;;20.57;;
18738;SDS011;9498;51.862;19.460;2023-04-21T00:10:51;50.17;;;22.30;;
18738;SDS011;9498;51.862;19.460;2023-04-21T00:13:20;49.13;;;23.73;;
18738;SDS011;9498;51.862;19.460;2023-04-21T00:15:48;46.97;;;21.00;;
18738;SDS011;9498;51.862;19.460;2023-04-21T00:18:15;43.20;;;21.07;;
18738;SDS011;9498;51.862;19.460;2023-04-21T00:20:42;45.43;;;21.53;;
18738;SDS011;9498;51.862;19.460;2023-04-21T00:23:10;47.10;;;21.53;;
18738;SDS011;9498;51.862;19.460;2023-04-21T00:25:37;43.63;;;22.07;;
18738;SDS011;9498;51.862;19.460;2023-04-21T00:28:04;47.37;;;20.90;;
18738;SDS011;9498;51.862;19.460;2023-04-21T00:30:33;46.47;;;21.60;;
18738;SDS011;9498;51.862;19.460;2023-04-21T00:33:00;43.33;;;21.33;;
18738;SDS011;9498;51.862;19.460;2023-04-21T00:35:27;44.60;;;20.73;;
18738;SDS011;9498;51.862;19.460;2023-04-21T00:37:54;49.33;;;22.17;;
18738;SDS011;9498;51.862;19.460;2023-04-21T00:40:22;47.70;;;22.97;;
18738;SDS011;9498;51.862;19.460;2023-04-21T00:42:49;47.57;;;22.37;;
18738;SDS011;9498;51.862;19.460;2023-04-21T00:45:16;48.97;;;21.87;;
18738;SDS011;9498;51.862;19.460;2023-04-21T00:47:45;54.90;;;24.57;;
18738;SDS011;9498;51.862;19.460;2023-04-21T00:50:12;63.17;;;27.00;;
18738;SDS011;9498;51.862;19.460;2023-04-21T00:52:39;70.57;;;27.47;;
18738;SDS011;9498;51.862;19.460;2023-04-21T00:55:08;56.20;;;22.03;;
18738;SDS011;9498;51.862;19.460;2023-04-21T00:57:35;51.47;;;22.80;;
18738;SDS011;9498;51.862;19.460;2023-04-21T01:00:03;51.93;;;23.20;;
18738;SDS011;9498;51.862;19.460;2023-04-21T01:02:33;49.07;;;21.13;;
18738;SDS011;9498;51.862;19.460;2023-04-21T01:05:02;43.30;;;20.80;;
18738;SDS011;9498;51.862;19.460;2023-04-21T01:07:31;53.70;;;23.97;;
18738;SDS011;9498;51.862;19.460;2023-04-21T01:10:00;45.63;;;21.43;;
18738;SDS011;9498;51.862;19.460;2023-04-21T01:12:27;47.60;;;23.30;;
18738;SDS011;9498;51.862;19.460;2023-04-21T01:14:54;52.77;;;24.00;;
18738;SDS011;9498;51.862;19.460;2023-04-21T01:17:21;43.37;;;20.57;;
18738;SDS011;9498;51.862;19.460;2023-04-21T01:19:49;42.67;;;19.83;;
18738;SDS011;9498;51.862;19.460;2023-04-21T01:22:18;39.23;;;18.70;;
18738;SDS011;9498;51.862;19.460;2023-04-21T01:24:47;45.70;;;18.40;;
18738;SDS011;9498;51.862;19.460;2023-04-21T01:27:15;38.53;;;18.43;;
18738;SDS011;9498;51.862;19.460;2023-04-21T01:29:43;42.07;;;20.17;;
18738;SDS011;9498;51.862;19.460;2023-04-21T01:32:12;49.67;;;22.07;;
18738;SDS011;9498;51.862;19.460;2023-04-21T01:34:40;50.27;;;23.17;;
18738;SDS011;9498;51.862;19.460;2023-04-21T01:37:07;54.90;;;23.80;;
18738;SDS011;9498;51.862;19.460;2023-04-21T01:39:37;55.27;;;24.97;;
18738;SDS011;9498;51.862;19.460;2023-04-21T01:42:05;47.03;;;23.37;;
18738;SDS011;9498;51.862;19.460;2023-04-21T01:44:32;53.97;;;24.07;;
18738;SDS011;9498;51.862;19.460;2023-04-21T01:46:59;45.23;;;19.43;;
18738;SDS011;9498;51.862;19.460;2023-04-21T01:49:27;39.93;;;19.47;;
18738;SDS011;9498;51.862;19.460;2023-04-21T01:51:54;38.87;;;18.87;;
18738;SDS011;9498;51.862;19.460;2023-04-21T01:54:21;40.30;;;19.50;;
18738;SDS011;9498;51.862;19.460;2023-04-21T01:56:50;39.97;;;20.77;;
18738;SDS011;9498;51.862;19.460;2023-04-21T01:59:17;39.67;;;18.93;;
18738;SDS011;9498;51.862;19.460;2023-04-21T02:01:45;39.30;;;19.23;;
18738;SDS011;9498;51.862;19.460;2023-04-21T02:04:12;39.00;;;18.67;;
18738;SDS011;9498;51.862;19.460;2023-04-21T02:06:39;41.43;;;18.40;;
18738;SDS011;9498;51.862;19.460;2023-04-21T02:09:06;40.73;;;20.23;;
18738;SDS011;9498;51.862;19.460;2023-04-21T02:11:34;42.50;;;20.53;;
18738;SDS011;9498;51.862;19.460;2023-04-21T02:14:02;44.00;;;22.10;;
18738;SDS011;9498;51.862;19.460;2023-04-21T02:16:29;41.67;;;19.17;;
18738;SDS011;9498;51.862;19.460;2023-04-21T02:18:57;39.57;;;18.97;;
18738;SDS011;9498;51.862;19.460;2023-04-21T02:21:24;42.13;;;18.63;;
18738;SDS011;9498;51.862;19.460;2023-04-21T02:23:52;41.60;;;18.57;;
18738;SDS011;9498;51.862;19.460;2023-04-21T02:26:19;40.07;;;19.73;;
18738;SDS011;9498;51.862;19.460;2023-04-21T02:28:46;48.03;;;23.20;;
18738;SDS011;9498;51.862;19.460;2023-04-21T02:31:15;52.63;;;22.80;;
18738;SDS011;9498;51.862;19.460;2023-04-21T02:33:43;47.80;;;21.83;;
18738;SDS011;9498;51.862;19.460;2023-04-21T02:36:10;72.20;;;31.47;;
18738;SDS011;9498;51.862;19.460;2023-04-21T02:38:37;63.60;;;28.43;;
18738;SDS011;9498;51.862;19.460;2023-04-21T02:41:04;65.83;;;27.80;;
18738;SDS011;9498;51.862;19.460;2023-04-21T02:43:32;61.13;;;26.07;;
18738;SDS011;9498;51.862;19.460;2023-04-21T02:46:03;49.73;;;23.77;;
18738;SDS011;9498;51.862;19.460;2023-04-21T02:48:32;50.90;;;23.03;;
18738;SDS011;9498;51.862;19.460;2023-04-21T02:50:59;48.37;;;22.90;;
18738;SDS011;9498;51.862;19.460;2023-04-21T02:53:26;51.67;;;24.77;;
18738;SDS011;9498;51.862;19.460;2023-04-21T02:55:54;52.37;;;23.27;;
18738;SDS011;9498;51.862;19.460;2023-04-21T02:58:21;50.17;;;23.87;;
18738;SDS011;9498;51.862;19.460;2023-04-21T03:00:48;52.73;;;22.63;;
18738;SDS011;9498;51.862;19.460;2023-04-21T03:03:15;50.03;;;22.77;;
18738;SDS011;9498;51.862;19.460;2023-04-21T03:05:44;52.73;;;22.60;;
18738;SDS011;9498;51.862;19.460;2023-04-21T03:08:11;52.43;;;22.60;;
18738;SDS011;9498;51.862;19.460;2023-04-21T03:10:38;50.97;;;21.87;;
18738;SDS011;9498;51.862;19.460;2023-04-21T03:13:06;48.43;;;20.17;;
18738;SDS011;9498;51.862;19.460;2023-04-21T03:15:33;42.17;;;19.73;;
18738;SDS011;9498;51.862;19.460;2023-04-21T03:18:00;47.67;;;20.30;;
18738;SDS011;9498;51.862;19.460;2023-04-21T03:20:27;49.40;;;22.50;;
18738;SDS011;9498;51.862;19.460;2023-04-21T03:22:56;47.37;;;20.73;;
18738;SDS011;9498;51.862;19.460;2023-04-21T03:25:23;48.27;;;20.03;;
18738;SDS011;9498;51.862;19.460;2023-04-21T03:27:52;42.17;;;19.50;;
18738;SDS011;9498;51.862;19.460;2023-04-21T03:30:19;39.00;;;18.53;;
18738;SDS011;9498;51.862;19.460;2023-04-21T03:32:46;38.23;;;19.50;;
18738;SDS011;9498;51.862;19.460;2023-04-21T03:35:14;39.77;;;18.97;;
18738;SDS011;9498;51.862;19.460;2023-04-21T03:37:41;40.23;;;18.93;;
18738;SDS011;9498;51.862;19.460;2023-04-21T03:40:10;44.53;;;20.17;;
18738;SDS011;9498;51.862;19.460;2023-04-21T03:42:37;43.00;;;20.50;;
18738;SDS011;9498;51.862;19.460;2023-04-21T03:45:05;43.60;;;19.93;;
18738;SDS011;9498;51.862;19.460;2023-04-21T03:47:32;40.97;;;19.90;;
18738;SDS011;9498;51.862;19.460;2023-04-21T03:50:01;41.37;;;19.80;;
18738;SDS011;9498;51.862;19.460;2023-04-21T03:52:29;42.10;;;20.23;;
18738;SDS011;9498;51.862;19.460;2023-04-21T03:54:56;38.93;;;19.60;;
18738;SDS011;9498;51.862;19.460;2023-04-21T03:57:25;40.23;;;19.10;;
18738;SDS011;9498;51.862;19.460;2023-04-21T03:59:52;42.17;;;18.77;;
18738;SDS011;9498;51.862;19.460;2023-04-21T04:02:19;39.33;;;19.17;;
18738;SDS011;9498;51.862;19.460;2023-04-21T04:04:47;38.30;;;19.20;;
18738;SDS011;9498;51.862;19.460;2023-04-21T04:07:14;39.80;;;19.40;;
18738;SDS011;9498;51.862;19.460;2023-04-21T04:09:41;33.10;;;17.90;;
18738;SDS011;9498;51.862;19.460;2023-04-21T04:12:09;37.37;;;18.07;;
18738;SDS011;9498;51.862;19.460;2023-04-21T04:14:37;36.33;;;18.60;;
18738;SDS011;9498;51.862;19.460;2023-04-21T04:17:05;38.27;;;18.93;;
18738;SDS011;9498;51.862;19.460;2023-04-21T04:19:32;42.57;;;20.43;;
18738;SDS011;9498;51.862;19.460;2023-04-21T04:21:59;39.20;;;19.93;;
18738;SDS011;9498;51.862;19.460;2023-04-21T04:24:27;39.27;;;19.60;;
18738;SDS011;9498;51.862;19.460;2023-04-21T04:26:55;40.27;;;19.17;;
18738;SDS011;9498;51.862;19.460;2023-04-21T04:29:24;36.07;;;18.27;;
18738;SDS011;9498;51.862;19.460;2023-04-21T04:31:52;41.80;;;17.33;;
18738;SDS011;9498;51.862;19.460;2023-04-21T04:34:20;32.87;;;17.30;;
18738;SDS011;9498;51.862;19.460;2023-04-21T04:36:48;37.37;;;17.33;;
18738;SDS011;9498;51.862;19.460;2023-04-21T04:39:15;30.30;;;16.67;;
18738;SDS011;9498;51.862;19.460;2023-04-21T04:41:43;37.03;;;15.87;;
18738;SDS011;9498;51.862;19.460;2023-04-21T04:44:11;33.67;;;16.13;;
18738;SDS011;9498;51.862;19.460;2023-04-21T04:46:40;29.67;;;14.17;;
18738;SDS011;9498;51.862;19.460;2023-04-21T04:49:09;29.13;;;14.23;;
18738;SDS011;9498;51.862;19.460;2023-04-21T04:51:36;27.77;;;13.23;;
18738;SDS011;9498;51.862;19.460;2023-04-21T04:54:04;30.53;;;14.07;;
18738;SDS011;9498;51.862;19.460;2023-04-21T04:56:31;26.67;;;13.70;;
18738;SDS011;9498;51.862;19.460;2023-04-21T04:58:58;33.27;;;13.87;;
18738;SDS011;9498;51.862;19.460;2023-04-21T05:01:25;29.00;;;13.73;;
18738;SDS011;9498;51.862;19.460;2023-04-21T05:03:54;26.50;;;14.00;;
18738;SDS011;9498;51.862;19.460;2023-04-21T05:06:23;25.90;;;13.23;;
18738;SDS011;9498;51.862;19.460;2023-04-21T05:08:52;23.80;;;12.00;;
18738;SDS011;9498;51.862;19.460;2023-04-21T05:11:20;26.57;;;12.90;;
18738;SDS011;9498;51.862;19.460;2023-04-21T05:13:47;32.67;;;13.77;;
18738;SDS011;9498;51.862;19.460;2023-04-21T05:16:14;25.40;;;13.13;;
18738;SDS011;9498;51.862;19.460;2023-04-21T05:18:41;25.13;;;12.30;;
18738;SDS011;9498;51.862;19.460;2023-04-21T05:21:09;23.13;;;11.60;;
18738;SDS011;9498;51.862;19.460;2023-04-21T05:23:38;24.43;;;11.50;;
18738;SDS011;9498;51.862;19.460;2023-04-21T05:26:05;24.53;;;11.47;;
18738;SDS011;9498;51.862;19.460;2023-04-21T05:28:32;22.87;;;12.27;;
18738;SDS011;9498;51.862;19.460;2023-04-21T05:31:00;21.13;;;11.43;;
18738;SDS011;9498;51.862;19.460;2023-04-21T05:33:27;23.03;;;12.07;;
18738;SDS011;9498;51.862;19.460;2023-04-21T05:35:55;19.63;;;11.00;;
18738;SDS011;9498;51.862;19.460;2023-04-21T05:38:23;19.83;;;10.33;;
18738;SDS011;9498;51.862;19.460;2023-04-21T05:40:53;24.50;;;11.13;;
18738;SDS011;9498;51.862;19.460;2023-04-21T05:43:20;25.20;;;10.00;;
18738;SDS011;9498;51.862;19.460;2023-04-21T05:45:48;23.97;;;10.23;;
18738;SDS011;9498;51.862;19.460;2023-04-21T05:48:15;18.63;;;9.70;;
18738;SDS011;9498;51.862;19.460;2023-04-21T05:50:42;23.83;;;11.00;;
18738;SDS011;9498;51.862;19.460;2023-04-21T05:53:10;17.83;;;10.13;;
18738;SDS011;9498;51.862;19.460;2023-04-21T05:55:37;20.20;;;10.37;;
18738;SDS011;9498;51.862;19.460;2023-04-21T05:58:05;21.20;;;11.20;;
18738;SDS011;9498;51.862;19.460;2023-04-21T06:00:33;20.33;;;11.17;;
18738;SDS011;9498;51.862;19.460;2023-04-21T06:03:00;20.60;;;11.13;;
18738;SDS011;9498;51.862;19.460;2023-04-21T06:05:27;26.87;;;11.50;;
18738;SDS011;9498;51.862;19.460;2023-04-21T06:07:55;28.57;;;11.63;;
18738;SDS011;9498;51.862;19.460;2023-04-21T06:10:22;24.20;;;12.57;;
18738;SDS011;9498;51.862;19.460;2023-04-21T06:12:49;22.47;;;10.93;;
18738;SDS011;9498;51.862;19.460;2023-04-21T06:15:18;26.27;;;12.87;;
18738;SDS011;9498;51.862;19.460;2023-04-21T06:17:45;23.30;;;12.60;;
18738;SDS011;9498;51.862;19.460;2023-04-21T06:20:12;22.17;;;11.93;;
18738;SDS011;9498;51.862;19.460;2023-04-21T06:22:41;23.07;;;12.00;;
18738;SDS011;9498;51.862;19.460;2023-04-21T06:25:09;22.63;;;11.03;;
18738;SDS011;9498;51.862;19.460;2023-04-21T06:27:36;27.10;;;11.60;;
18738;SDS011;9498;51.862;19.460;2023-04-21T06:30:03;18.57;;;10.40;;
18738;SDS011;9498;51.862;19.460;2023-04-21T06:32:32;21.97;;;10.67;;
18738;SDS011;9498;51.862;19.460;2023-04-21T06:35:00;19.07;;;9.97;;
18738;SDS011;9498;51.862;19.460;2023-04-21T06:37:27;20.33;;;10.43;;
18738;SDS011;9498;51.862;19.460;2023-04-21T06:40:11;19.33;;;9.37;;
18738;SDS011;9498;51.862;19.460;2023-04-21T06:42:40;16.53;;;9.23;;
18738;SDS011;9498;51.862;19.460;2023-04-21T06:45:07;16.40;;;8.93;;
18738;SDS011;9498;51.862;19.460;2023-04-21T06:47:36;18.43;;;10.40;;
18738;SDS011;9498;51.862;19.460;2023-04-21T06:50:04;18.23;;;9.70;;
18738;SDS011;9498;51.862;19.460;2023-04-21T06:52:31;18.60;;;9.50;;
18738;SDS011;9498;51.862;19.460;2023-04-21T06:54:58;18.67;;;9.57;;
18738;SDS011;9498;51.862;19.460;2023-04-21T06:57:26;20.50;;;9.97;;
18738;SDS011;9498;51.862;19.460;2023-04-21T06:59:53;19.00;;;10.63;;
18738;SDS011;9498;51.862;19.460;2023-04-21T07:02:20;18.43;;;9.37;;
18738;SDS011;9498;51.862;19.460;2023-04-21T07:04:49;15.67;;;9.37;;
18738;SDS011;9498;51.862;19.460;2023-04-21T07:07:16;16.30;;;9.07;;
18738;SDS011;9498;51.862;19.460;2023-04-21T07:09:43;24.20;;;9.13;;
18738;SDS011;9498;51.862;19.460;2023-04-21T07:12:12;21.03;;;9.97;;
18738;SDS011;9498;51.862;19.460;2023-04-21T07:14:39;17.57;;;9.27;;
18738;SDS011;9498;51.862;19.460;2023-04-21T07:17:06;20.47;;;8.27;;
18738;SDS011;9498;51.862;19.460;2023-04-21T07:19:34;15.60;;;8.60;;
18738;SDS011;9498;51.862;19.460;2023-04-21T07:22:03;15.60;;;8.50;;
18738;SDS011;9498;51.862;19.460;2023-04-21T07:24:30;18.03;;;8.03;;
18738;SDS011;9498;51.862;19.460;2023-04-21T07:26:59;16.53;;;7.63;;
18738;SDS011;9498;51.862;19.460;2023-04-21T07:29:27;18.13;;;8.80;;
18738;SDS011;9498;51.862;19.460;2023-04-21T07:31:54;12.73;;;7.37;;
18738;SDS011;9498;51.862;19.460;2023-04-21T07:34:22;17.67;;;8.20;;
18738;SDS011;9498;51.862;19.460;2023-04-21T07:36:50;12.17;;;7.10;;
18738;SDS011;9498;51.862;19.460;2023-04-21T07:39:19;23.57;;;7.43;;
18738;SDS011;9498;51.862;19.460;2023-04-21T07:41:46;16.37;;;7.23;;
18738;SDS011;9498;51.862;19.460;2023-04-21T07:44:13;14.07;;;7.20;;
18738;SDS011;9498;51.862;19.460;2023-04-21T07:46:41;11.33;;;6.27;;
18738;SDS011;9498;51.862;19.460;2023-04-21T07:49:08;15.03;;;6.60;;
18738;SDS011;9498;51.862;19.460;2023-04-21T07:51:35;11.67;;;6.23;;
18738;SDS011;9498;51.862;19.460;2023-04-21T07:54:03;15.97;;;6.47;;
18738;SDS011;9498;51.862;19.460;2023-04-21T07:56:32;13.07;;;6.07;;
18738;SDS011;9498;51.862;19.460;2023-04-21T07:58:59;15.30;;;6.77;;
18738;SDS011;9498;51.862;19.460;2023-04-21T08:01:27;14.37;;;6.40;;
18738;SDS011;9498;51.862;19.460;2023-04-21T08:03:54;12.70;;;6.87;;
18738;SDS011;9498;51.862;19.460;2023-04-21T08:06:21;14.50;;;6.80;;
18738;SDS011;9498;51.862;19.460;2023-04-21T08:08:48;14.03;;;5.87;;
18738;SDS011;9498;51.862;19.460;2023-04-21T08:11:15;10.00;;;5.30;;
18738;SDS011;9498;51.862;19.460;2023-04-21T08:13:44;11.93;;;6.00;;
18738;SDS011;9498;51.862;19.460;2023-04-21T08:16:11;16.47;;;5.60;;
18738;SDS011;9498;51.862;19.460;2023-04-21T08:18:39;11.30;;;6.30;;
18738;SDS011;9498;51.862;19.460;2023-04-21T08:21:07;11.43;;;6.10;;
18738;SDS011;9498;51.862;19.460;2023-04-21T08:23:34;9.93;;;5.67;;
18738;SDS011;9498;51.862;19.460;2023-04-21T08:26:01;11.23;;;5.63;;
18738;SDS011;9498;51.862;19.460;2023-04-21T08:28:28;10.17;;;5.63;;
18738;SDS011;9498;51.862;19.460;2023-04-21T08:30:57;9.00;;;5.17;;
18738;SDS011;9498;51.862;19.460;2023-04-21T08:33:26;14.83;;;5.00;;
18738;SDS011;9498;51.862;19.460;2023-04-21T08:35:53;13.37;;;4.63;;
18738;SDS011;9498;51.862;19.460;2023-04-21T08:38:20;8.00;;;4.63;;
18738;SDS011;9498;51.862;19.460;2023-04-21T08:40:47;8.07;;;4.93;;
18738;SDS011;9498;51.862;19.460;2023-04-21T08:43:15;8.87;;;4.27;;
18738;SDS011;9498;51.862;19.460;2023-04-21T08:45:42;7.80;;;4.30;;
18738;SDS011;9498;51.862;19.460;2023-04-21T08:48:11;11.00;;;5.00;;
18738;SDS011;9498;51.862;19.460;2023-04-21T08:50:42;11.27;;;4.90;;
18738;SDS011;9498;51.862;19.460;2023-04-21T08:53:10;8.90;;;4.73;;
18738;SDS011;9498;51.862;19.460;2023-04-21T08:55:39;7.03;;;4.37;;
18738;SDS011;9498;51.862;19.460;2023-04-21T08:58:06;8.70;;;4.00;;
18738;SDS011;9498;51.862;19.460;2023-04-21T09:00:34;7.80;;;4.10;;
18738;SDS011;9498;51.862;19.460;2023-04-21T09:03:01;9.90;;;4.00;;
18738;SDS011;9498;51.862;19.460;2023-04-21T09:05:33;10.20;;;4.10;;
18738;SDS011;9498;51.862;19.460;2023-04-21T09:08:07;9.53;;;4.03;;
18738;SDS011;9498;51.862;19.460;2023-04-21T09:10:41;13.20;;;4.53;;
18738;SDS011;9498;51.862;19.460;2023-04-21T09:13:09;6.93;;;3.83;;
18738;SDS011;9498;51.862;19.460;2023-04-21T09:15:39;6.70;;;4.03;;
18738;SDS011;9498;51.862;19.460;2023-04-21T09:18:10;6.60;;;3.73;;
18738;SDS011;9498;51.862;19.460;2023-04-21T09:20:39;8.70;;;3.90;;
18738;SDS011;9498;51.862;19.460;2023-04-21T09:23:07;7.47;;;3.80;;
18738;SDS011;9498;51.862;19.460;2023-04-21T09:25:36;6.00;;;3.87;;
18738;SDS011;9498;51.862;19.460;2023-04-21T09:28:06;7.93;;;3.80;;
18738;SDS011;9498;51.862;19.460;2023-04-21T09:30:34;6.50;;;3.10;;
18738;SDS011;9498;51.862;19.460;2023-04-21T09:33:02;13.13;;;4.67;;
18738;SDS011;9498;51.862;19.460;2023-04-21T09:35:31;7.73;;;3.70;;
18738;SDS011;9498;51.862;19.460;2023-04-21T09:38:00;6.53;;;3.23;;
18738;SDS011;9498;51.862;19.460;2023-04-21T09:40:28;6.83;;;3.67;;
18738;SDS011;9498;51.862;19.460;2023-04-21T09:42:55;5.83;;;3.30;;
18738;SDS011;9498;51.862;19.460;2023-04-21T09:45:23;7.97;;;4.03;;
18738;SDS011;9498;51.862;19.460;2023-04-21T09:47:53;6.27;;;3.33;;
18738;SDS011;9498;51.862;19.460;2023-04-21T09:50:21;7.43;;;3.30;;
18738;SDS011;9498;51.862;19.460;2023-04-21T09:52:49;7.60;;;3.27;;
18738;SDS011;9498;51.862;19.460;2023-04-21T09:55:18;5.07;;;3.13;;
18738;SDS011;9498;51.862;19.460;2023-04-21T09:57:46;6.33;;;3.03;;
18738;SDS011;9498;51.862;19.460;2023-04-21T10:00:14;5.63;;;3.27;;
18738;SDS011;9498;51.862;19.460;2023-04-21T10:02:42;6.37;;;3.50;;
18738;SDS011;9498;51.862;19.460;2023-04-21T10:05:10;11.97;;;3.97;;
18738;SDS011;9498;51.862;19.460;2023-04-21T10:07:37;6.47;;;3.87;;
18738;SDS011;9498;51.862;19.460;2023-04-21T10:10:06;8.53;;;3.80;;
18738;SDS011;9498;51.862;19.460;2023-04-21T10:12:35;6.33;;;3.63;;
18738;SDS011;9498;51.862;19.460;2023-04-21T10:15:03;4.60;;;3.33;;
18738;SDS011;9498;51.862;19.460;2023-04-21T10:17:33;6.97;;;3.77;;
18738;SDS011;9498;51.862;19.460;2023-04-21T10:20:03;6.33;;;3.70;;
18738;SDS011;9498;51.862;19.460;2023-04-21T10:22:32;10.87;;;3.73;;
18738;SDS011;9498;51.862;19.460;2023-04-21T10:25:00;16.40;;;6.37;;
18738;SDS011;9498;51.862;19.460;2023-04-21T10:27:31;8.87;;;3.90;;
18738;SDS011;9498;51.862;19.460;2023-04-21T10:30:00;4.63;;;3.37;;
18738;SDS011;9498;51.862;19.460;2023-04-21T10:32:31;20.37;;;8.90;;
18738;SDS011;9498;51.862;19.460;2023-04-21T10:35:07;8.13;;;3.87;;
18738;SDS011;9498;51.862;19.460;2023-04-21T10:37:34;10.77;;;4.93;;
18738;SDS011;9498;51.862;19.460;2023-04-21T10:40:02;9.40;;;3.63;;
18738;SDS011;9498;51.862;19.460;2023-04-21T10:42:33;11.83;;;3.87;;
18738;SDS011;9498;51.862;19.460;2023-04-21T10:45:12;5.47;;;3.53;;
18738;SDS011;9498;51.862;19.460;2023-04-21T10:47:41;6.73;;;3.70;;
18738;SDS011;9498;51.862;19.460;2023-04-21T10:50:15;8.73;;;3.60;;
18738;SDS011;9498;51.862;19.460;2023-04-21T10:52:44;7.53;;;3.57;;
18738;SDS011;9498;51.862;19.460;2023-04-21T10:55:12;6.53;;;3.63;;
18738;SDS011;9498;51.862;19.460;2023-04-21T10:57:41;6.07;;;3.30;;
18738;SDS011;9498;51.862;19.460;2023-04-21T11:00:09;8.70;;;3.93;;
18738;SDS011;9498;51.862;19.460;2023-04-21T11:02:38;11.33;;;4.57;;
18738;SDS011;9498;51.862;19.460;2023-04-21T11:05:05;11.73;;;3.60;;
18738;SDS011;9498;51.862;19.460;2023-04-21T11:07:34;6.17;;;3.53;;
18738;SDS011;9498;51.862;19.460;2023-04-21T11:10:05;6.13;;;3.10;;
18738;SDS011;9498;51.862;19.460;2023-04-21T11:12:33;7.32;;;3.40;;
18738;SDS011;9498;51.862;19.460;2023-04-21T11:15:02;7.50;;;4.03;;
18738;SDS011;9498;51.862;19.460;2023-04-21T11:17:32;7.57;;;3.27;;
18738;SDS011;9498;51.862;19.460;2023-04-21T11:20:01;10.67;;;5.87;;
18738;SDS011;9498;51.862;19.460;2023-04-21T11:22:30;5.97;;;3.10;;
18738;SDS011;9498;51.862;19.460;2023-04-21T11:24:57;6.60;;;3.40;;
18738;SDS011;9498;51.862;19.460;2023-04-21T11:27:25;6.20;;;3.20;;
18738;SDS011;9498;51.862;19.460;2023-04-21T11:29:53;6.83;;;3.27;;
18738;SDS011;9498;51.862;19.460;2023-04-21T11:32:21;8.13;;;4.17;;
18738;SDS011;9498;51.862;19.460;2023-04-21T11:34:48;8.87;;;4.53;;
18738;SDS011;9498;51.862;19.460;2023-04-21T11:37:22;8.30;;;4.67;;
18738;SDS011;9498;51.862;19.460;2023-04-21T11:39:55;7.03;;;3.30;;
18738;SDS011;9498;51.862;19.460;2023-04-21T11:42:22;7.60;;;3.87;;
18738;SDS011;9498;51.862;19.460;2023-04-21T11:44:52;8.50;;;4.07;;
18738;SDS011;9498;51.862;19.460;2023-04-21T11:47:20;6.03;;;3.47;;
18738;SDS011;9498;51.862;19.460;2023-04-21T11:49:50;7.43;;;3.13;;
18738;SDS011;9498;51.862;19.460;2023-04-21T11:52:20;5.40;;;3.33;;
18738;SDS011;9498;51.862;19.460;2023-04-21T11:54:48;6.37;;;3.27;;
18738;SDS011;9498;51.862;19.460;2023-04-21T11:57:17;6.67;;;3.33;;
18738;SDS011;9498;51.862;19.460;2023-04-21T11:59:44;7.43;;;3.37;;
18738;SDS011;9498;51.862;19.460;2023-04-21T12:02:12;8.53;;;3.27;;
18738;SDS011;9498;51.862;19.460;2023-04-21T12:04:55;8.27;;;3.20;;
18738;SDS011;9498;51.862;19.460;2023-04-21T12:07:24;5.87;;;3.37;;
18738;SDS011;9498;51.862;19.460;2023-04-21T12:09:51;4.17;;;3.13;;
18738;SDS011;9498;51.862;19.460;2023-04-21T12:12:18;7.20;;;3.03;;
18738;SDS011;9498;51.862;19.460;2023-04-21T12:14:45;6.10;;;3.17;;
18738;SDS011;9498;51.862;19.460;2023-04-21T12:17:12;7.43;;;3.00;;
18738;SDS011;9498;51.862;19.460;2023-04-21T12:19:40;8.23;;;3.00;;
18738;SDS011;9498;51.862;19.460;2023-04-21T12:22:08;8.77;;;3.20;;
18738;SDS011;9498;51.862;19.460;2023-04-21T12:24:37;5.17;;;2.90;;
18738;SDS011;9498;51.862;19.460;2023-04-21T12:27:05;8.83;;;3.20;;
18738;SDS011;9498;51.862;19.460;2023-04-21T12:29:32;7.33;;;2.80;;
18738;SDS011;9498;51.862;19.460;2023-04-21T12:32:01;4.97;;;2.93;;
18738;SDS011;9498;51.862;19.460;2023-04-21T12:34:28;5.53;;;3.00;;
18738;SDS011;9498;51.862;19.460;2023-04-21T12:36:55;5.73;;;2.63;;
18738;SDS011;9498;51.862;19.460;2023-04-21T12:39:23;9.97;;;2.77;;
18738;SDS011;9498;51.862;19.460;2023-04-21T12:41:51;4.50;;;2.90;;
18738;SDS011;9498;51.862;19.460;2023-04-21T12:44:18;5.23;;;2.63;;
18738;SDS011;9498;51.862;19.460;2023-04-21T12:46:46;5.93;;;2.90;;
18738;SDS011;9498;51.862;19.460;2023-04-21T12:49:14;5.57;;;2.60;;
18738;SDS011;9498;51.862;19.460;2023-04-21T12:51:41;7.13;;;3.00;;
18738;SDS011;9498;51.862;19.460;2023-04-21T12:54:09;6.67;;;3.00;;
18738;SDS011;9498;51.862;19.460;2023-04-21T12:56:36;7.33;;;2.80;;
18738;SDS011;9498;51.862;19.460;2023-04-21T12:59:07;4.73;;;3.07;;
18738;SDS011;9498;51.862;19.460;2023-04-21T13:01:35;8.03;;;2.90;;
18738;SDS011;9498;51.862;19.460;2023-04-21T13:04:02;4.60;;;2.73;;
18738;SDS011;9498;51.862;19.460;2023-04-21T13:06:29;5.03;;;2.67;;
18738;SDS011;9498;51.862;19.460;2023-04-21T13:08:57;11.17;;;3.30;;
18738;SDS011;9498;51.862;19.460;2023-04-21T13:11:24;6.40;;;2.63;;
18738;SDS011;9498;51.862;19.460;2023-04-21T13:13:51;7.03;;;2.80;;
18738;SDS011;9498;51.862;19.460;2023-04-21T13:16:20;6.73;;;2.83;;
18738;SDS011;9498;51.862;19.460;2023-04-21T13:18:47;4.77;;;2.90;;
18738;SDS011;9498;51.862;19.460;2023-04-21T13:21:14;5.37;;;2.63;;
18738;SDS011;9498;51.862;19.460;2023-04-21T13:23:41;7.13;;;3.20;;
18738;SDS011;9498;51.862;19.460;2023-04-21T13:26:09;4.53;;;2.70;;
18738;SDS011;9498;51.862;19.460;2023-04-21T13:28:36;8.97;;;3.73;;
18738;SDS011;9498;51.862;19.460;2023-04-21T13:31:03;6.00;;;2.80;;
18738;SDS011;9498;51.862;19.460;2023-04-21T13:33:32;5.37;;;2.70;;
18738;SDS011;9498;51.862;19.460;2023-04-21T13:36:00;5.60;;;3.17;;
18738;SDS011;9498;51.862;19.460;2023-04-21T13:38:27;5.00;;;3.23;;
18738;SDS011;9498;51.862;19.460;2023-04-21T13:40:55;7.90;;;3.30;;
18738;SDS011;9498;51.862;19.460;2023-04-21T13:43:22;5.83;;;3.43;;
18738;SDS011;9498;51.862;19.460;2023-04-21T13:45:49;4.57;;;3.30;;
18738;SDS011;9498;51.862;19.460;2023-04-21T13:48:17;9.03;;;3.43;;
18738;SDS011;9498;51.862;19.460;2023-04-21T13:50:46;7.07;;;3.43;;
18738;SDS011;9498;51.862;19.460;2023-04-21T13:53:13;7.63;;;4.27;;
18738;SDS011;9498;51.862;19.460;2023-04-21T13:55:41;6.90;;;3.50;;
18738;SDS011;9498;51.862;19.460;2023-04-21T13:58:08;7.60;;;3.87;;
18738;SDS011;9498;51.862;19.460;2023-04-21T14:00:36;6.07;;;3.63;;
18738;SDS011;9498;51.862;19.460;2023-04-21T14:03:03;5.10;;;3.07;;
18738;SDS011;9498;51.862;19.460;2023-04-21T14:05:30;4.93;;;3.17;;
18738;SDS011;9498;51.862;19.460;2023-04-21T14:07:59;5.40;;;2.80;;
18738;SDS011;9498;51.862;19.460;2023-04-21T14:10:26;7.27;;;2.87;;
18738;SDS011;9498;51.862;19.460;2023-04-21T14:12:53;6.43;;;3.40;;
18738;SDS011;9498;51.862;19.460;2023-04-21T14:15:21;6.10;;;3.07;;
18738;SDS011;9498;51.862;19.460;2023-04-21T14:17:48;8.17;;;3.30;;
18738;SDS011;9498;51.862;19.460;2023-04-21T14:20:15;5.47;;;3.30;;
18738;SDS011;9498;51.862;19.460;2023-04-21T14:22:43;5.50;;;2.93;;
18738;SDS011;9498;51.862;19.460;2023-04-21T14:25:11;8.70;;;3.73;;
18738;SDS011;9498;51.862;19.460;2023-04-21T14:27:38;7.73;;;3.03;;
18738;SDS011;9498;51.862;19.460;2023-04-21T14:30:06;7.53;;;3.10;;
18738;SDS011;9498;51.862;19.460;2023-04-21T14:32:34;5.13;;;3.00;;
18738;SDS011;9498;51.862;19.460;2023-04-21T14:35:01;6.00;;;3.20;;
18738;SDS011;9498;51.862;19.460;2023-04-21T14:37:29;6.90;;;3.30;;